Time;durP1;ratioP1;P1;durP2;ratioP2;P2;SDS_P1;SDS_P2;PMS_P1;PMS_P2;Temp;Humidity;BMP_temperature;BMP_pressure;BME280_temperature;BME280_humidity;BME280_pressure;Samples;Min_cycle;Max_cycle;Signal;HPM_P1;HPM_P2
2022/07/25 00:00:57;;;;;;;9.57;8.60;;;;;;;;;;2089930;28;20612;-58
2022/07/25 00:01:58;;;;;;;9.93;9.05;;;;;;;;;;2089567;28;20308;-59
2022/07/25 00:02:58;;;;;;;10.45;9.55;;;;;;;;;;2080876;28;20175;-56
2022/07/25 00:03:58;;;;;;;10.00;9.20;;;;;;;;;;2080622;28;20195;-59
2022/07/25 00:04:59;;;;;;;10.43;9.52;;;;;;;;;;2087622;28;20171;-61
2022/07/25 00:05:59;;;;;;;10.38;9.48;;;;;;;;;;2088200;28;20294;-59
2022/07/25 00:06:59;;;;;;;9.90;9.07;;;;;;;;;;2087926;28;20644;-61
2022/07/25 00:08:00;;;;;;;11.55;10.45;;;;;;;;;;2088657;28;20225;-58
2022/07/25 00:09:00;;;;;;;10.35;9.35;;;;;;;;;;2079734;28;20188;-60
2022/07/25 00:10:00;;;;;;;9.57;8.82;;;;;;;;;;2082537;28;20202;-58
2022/07/25 00:11:01;;;;;;;10.52;9.57;;;;;;;;;;2086984;28;20175;-61
2022/07/25 00:12:01;;;;;;;10.80;9.85;;;;;;;;;;2088656;28;20240;-61
2022/07/25 00:13:02;;;;;;;10.73;9.82;;;;;;;;;;2095794;22;20265;-62
2022/07/25 00:14:03;;;;;;;9.88;8.88;;;;;;;;;;2071293;28;20264;-65
2022/07/25 00:15:04;;;;;;;10.13;9.23;;;;;;;;;;2067049;28;20232;-65
2022/07/25 00:16:04;;;;;;;9.90;9.10;;;;;;;;;;2069121;28;20161;-66
2022/07/25 00:17:04;;;;;;;10.55;9.55;;;;;;;;;;2074386;28;20169;-68
2022/07/25 00:18:05;;;;;;;10.88;9.98;;;;;;;;;;2074719;28;20173;-67
2022/07/25 00:19:05;;;;;;;10.15;9.35;;;;;;;;;;2074420;28;20169;-65
2022/07/25 00:20:06;;;;;;;9.57;8.77;;;;;;;;;;2074920;28;20213;-65
2022/07/25 00:21:06;;;;;;;10.05;9.25;;;;;;;;;;2074308;28;20161;-65
2022/07/25 00:22:07;;;;;;;10.65;9.75;;;;;;;;;;2074639;28;20172;-66
2022/07/25 00:23:07;;;;;;;12.07;8.85;;;;;;;;;;2074167;28;20205;-67
2022/07/25 00:24:07;;;;;;;12.25;10.93;;;;;;;;;;2073858;28;20176;-67
2022/07/25 00:25:08;;;;;;;9.20;8.45;;;;;;;;;;2074709;28;20177;-67
2022/07/25 00:26:08;;;;;;;11.65;10.48;;;;;;;;;;2074493;28;20176;-65
2022/07/25 00:27:09;;;;;;;10.73;9.75;;;;;;;;;;2074492;28;20596;-66
2022/07/25 00:28:09;;;;;;;10.32;9.43;;;;;;;;;;2074411;28;20227;-67
2022/07/25 00:29:09;;;;;;;10.93;9.82;;;;;;;;;;2065934;28;20170;-63
2022/07/25 00:30:10;;;;;;;9.45;8.65;;;;;;;;;;2065292;28;20252;-65
2022/07/25 00:31:10;;;;;;;10.75;9.57;;;;;;;;;;2074369;28;20173;-65
2022/07/25 00:32:10;;;;;;;10.50;9.55;;;;;;;;;;2074364;28;20207;-66
2022/07/25 00:33:11;;;;;;;9.40;8.50;;;;;;;;;;2074858;28;20230;-66
2022/07/25 00:34:11;;;;;;;10.75;9.85;;;;;;;;;;2073967;28;20161;-65
2022/07/25 00:35:11;;;;;;;10.70;9.73;;;;;;;;;;2074756;28;20659;-66
2022/07/25 00:36:12;;;;;;;11.57;10.45;;;;;;;;;;2075241;28;20162;-68
2022/07/25 00:37:12;;;;;;;10.32;9.43;;;;;;;;;;2074969;28;20870;-65
2022/07/25 00:38:12;;;;;;;9.15;8.45;;;;;;;;;;2075512;28;20296;-64
2022/07/25 00:39:13;;;;;;;11.55;10.65;;;;;;;;;;2075594;28;20264;-65
2022/07/25 00:40:13;;;;;;;11.00;9.98;;;;;;;;;;2058570;28;20193;-65
2022/07/25 00:41:14;;;;;;;11.13;10.02;;;;;;;;;;2058375;28;20179;-64
2022/07/25 00:42:14;;;;;;;10.55;9.70;;;;;;;;;;2065434;28;20188;-64
2022/07/25 00:43:14;;;;;;;10.38;9.10;;;;;;;;;;2065693;28;20223;-65
2022/07/25 00:44:24;;;;;;;10.65;9.65;;;;;;;;;;2059189;28;20193;-66
2022/07/25 00:45:25;;;;;;;10.55;9.55;;;;;;;;;;2066032;28;20176;-64
2022/07/25 00:46:25;;;;;;;9.77;9.00;;;;;;;;;;2065618;28;20172;-65
2022/07/25 00:47:25;;;;;;;10.70;9.63;;;;;;;;;;2070115;28;20216;-65
2022/07/25 00:48:27;;;;;;;10.65;9.65;;;;;;;;;;2073462;28;20179;-64
2022/07/25 00:49:27;;;;;;;10.30;9.48;;;;;;;;;;2073637;28;20173;-65
2022/07/25 00:50:28;;;;;;;11.05;10.05;;;;;;;;;;2073385;28;20597;-65
2022/07/25 00:51:29;;;;;;;10.35;9.48;;;;;;;;;;2064219;28;20205;-66
2022/07/25 00:52:29;;;;;;;10.82;9.07;;;;;;;;;;2056322;28;20257;-64
2022/07/25 00:53:29;;;;;;;10.35;9.45;;;;;;;;;;2064781;28;20185;-64
2022/07/25 00:54:30;;;;;;;10.48;9.38;;;;;;;;;;2072433;28;20181;-63
2022/07/25 00:55:30;;;;;;;9.80;8.88;;;;;;;;;;2073593;28;20587;-60
2022/07/25 00:56:31;;;;;;;10.27;9.27;;;;;;;;;;2073419;28;20166;-63
2022/07/25 00:57:31;;;;;;;10.15;9.20;;;;;;;;;;2073549;28;20185;-65
2022/07/25 00:58:32;;;;;;;12.30;10.10;;;;;;;;;;2064305;28;20261;-64
2022/07/25 00:59:32;;;;;;;10.02;9.10;;;;;;;;;;2060183;28;20753;-64
2022/07/25 01:00:32;;;;;;;10.10;9.15;;;;;;;;;;2065329;28;20552;-63
2022/07/25 01:01:33;;;;;;;9.73;8.90;;;;;;;;;;2068709;28;20763;-63
2022/07/25 01:02:33;;;;;;;10.63;9.80;;;;;;;;;;2064603;28;20665;-61
2022/07/25 01:03:34;;;;;;;10.32;9.52;;;;;;;;;;2056792;28;20217;-64
2022/07/25 01:04:34;;;;;;;10.90;9.93;;;;;;;;;;2064535;28;20169;-64
2022/07/25 01:05:35;;;;;;;11.30;10.27;;;;;;;;;;2064653;28;20185;-65
2022/07/25 01:06:35;;;;;;;10.35;9.55;;;;;;;;;;2064889;28;20181;-65
2022/07/25 01:07:36;;;;;;;11.27;10.27;;;;;;;;;;2065576;28;20653;-65
2022/07/25 01:08:37;;;;;;;10.40;9.52;;;;;;;;;;2065436;28;20182;-65
2022/07/25 01:09:38;;;;;;;9.43;8.73;;;;;;;;;;2064625;28;20173;-66
2022/07/25 01:10:38;;;;;;;11.20;10.10;;;;;;;;;;2064830;28;20182;-64
2022/07/25 01:11:38;;;;;;;10.52;9.63;;;;;;;;;;2065304;28;20232;-65
2022/07/25 01:12:57;;;;;;;10.25;9.35;;;;;;;;;;2064951;28;20944;-65
2022/07/25 01:13:57;;;;;;;10.55;9.65;;;;;;;;;;2064601;28;20181;-63
2022/07/25 01:14:58;;;;;;;9.70;8.90;;;;;;;;;;2056120;28;20163;-60
2022/07/25 01:15:58;;;;;;;9.73;8.93;;;;;;;;;;2056436;28;20158;-64
2022/07/25 01:16:58;;;;;;;9.65;8.95;;;;;;;;;;2071716;28;20181;-61
2022/07/25 01:17:59;;;;;;;9.57;8.85;;;;;;;;;;2073274;28;20165;-64
2022/07/25 01:18:59;;;;;;;11.05;9.20;;;;;;;;;;2066473;28;20260;-63
2022/07/25 01:19:59;;;;;;;10.23;9.25;;;;;;;;;;2069116;28;20645;-63
2022/07/25 01:21:00;;;;;;;10.68;9.77;;;;;;;;;;2067440;28;20196;-63
2022/07/25 01:22:00;;;;;;;9.35;8.63;;;;;;;;;;2072693;28;20553;-64
2022/07/25 01:23:01;;;;;;;9.90;9.10;;;;;;;;;;2072698;28;20196;-64
2022/07/25 01:24:01;;;;;;;9.75;8.95;;;;;;;;;;2071475;28;20192;-59
2022/07/25 01:25:02;;;;;;;10.25;9.40;;;;;;;;;;2072710;28;20192;-64
2022/07/25 01:26:02;;;;;;;10.27;9.45;;;;;;;;;;2067490;28;20649;-64
2022/07/25 01:27:03;;;;;;;9.25;8.50;;;;;;;;;;2068849;28;20566;-65
2022/07/25 01:28:03;;;;;;;9.68;8.95;;;;;;;;;;2073106;28;20181;-64
2022/07/25 01:29:04;;;;;;;10.27;9.25;;;;;;;;;;2072996;28;20246;-65
2022/07/25 01:30:06;;;;;;;11.05;9.93;;;;;;;;;;2071184;28;20176;-64
2022/07/25 01:31:06;;;;;;;9.57;8.77;;;;;;;;;;2072951;28;20177;-59
2022/07/25 01:32:10;;;;;;;10.27;9.15;;;;;;;;;;2073203;28;20637;-64
2022/07/25 01:33:15;;;;;;;10.48;9.43;;;;;;;;;;2070367;28;20212;-64
2022/07/25 01:34:15;;;;;;;10.40;9.55;;;;;;;;;;2071128;28;20172;-65
2022/07/25 01:35:15;;;;;;;9.27;8.35;;;;;;;;;;2066178;28;20219;-63
2022/07/25 01:36:16;;;;;;;10.27;9.25;;;;;;;;;;2064894;28;20638;-61
2022/07/25 01:37:16;;;;;;;10.43;9.35;;;;;;;;;;2065178;28;20161;-64
2022/07/25 01:38:16;;;;;;;10.30;9.27;;;;;;;;;;2065038;28;20607;-63
2022/07/25 01:39:17;;;;;;;11.25;9.10;;;;;;;;;;2065086;28;20542;-64
2022/07/25 01:40:17;;;;;;;9.45;8.68;;;;;;;;;;2057398;28;20186;-61
2022/07/25 01:41:17;;;;;;;9.60;8.25;;;;;;;;;;2056510;28;20663;-65
2022/07/25 01:42:18;;;;;;;10.52;9.73;;;;;;;;;;2064794;28;20170;-66
2022/07/25 01:43:18;;;;;;;10.43;9.55;;;;;;;;;;2065125;28;20275;-63
2022/07/25 01:44:18;;;;;;;10.48;9.52;;;;;;;;;;2063397;28;20304;-65
2022/07/25 01:45:19;;;;;;;8.82;8.23;;;;;;;;;;2057084;28;20185;-65
2022/07/25 01:46:19;;;;;;;10.40;9.57;;;;;;;;;;2064465;28;20174;-63
2022/07/25 01:47:19;;;;;;;11.77;10.65;;;;;;;;;;2073195;28;20169;-65
2022/07/25 01:48:20;;;;;;;10.93;9.93;;;;;;;;;;2073100;28;20633;-64
2022/07/25 01:49:20;;;;;;;10.68;9.65;;;;;;;;;;2073015;28;20682;-64
2022/07/25 01:50:20;;;;;;;10.05;9.13;;;;;;;;;;2073026;28;20261;-65
2022/07/25 01:51:21;;;;;;;10.25;9.35;;;;;;;;;;2073322;28;20189;-64
2022/07/25 01:52:21;;;;;;;10.10;9.30;;;;;;;;;;2073055;28;20168;-61
2022/07/25 01:53:21;;;;;;;10.57;9.68;;;;;;;;;;2072907;28;20201;-64
2022/07/25 01:54:22;;;;;;;10.38;9.48;;;;;;;;;;2072270;28;20201;-66
2022/07/25 01:55:22;;;;;;;10.75;9.82;;;;;;;;;;2073030;28;20538;-66
2022/07/25 01:56:22;;;;;;;10.40;9.50;;;;;;;;;;2064538;28;20178;-66
2022/07/25 01:57:23;;;;;;;10.82;9.77;;;;;;;;;;2065089;28;20174;-64
2022/07/25 01:58:23;;;;;;;10.98;9.85;;;;;;;;;;2074023;28;20195;-66
2022/07/25 01:59:23;;;;;;;10.00;9.05;;;;;;;;;;2073047;28;20236;-64
2022/07/25 02:00:24;;;;;;;10.35;9.55;;;;;;;;;;2065463;28;20188;-62
2022/07/25 02:01:24;;;;;;;11.00;9.88;;;;;;;;;;2065615;28;20189;-64
2022/07/25 02:02:24;;;;;;;10.23;9.32;;;;;;;;;;2074655;28;20169;-64
2022/07/25 02:03:34;;;;;;;9.50;8.70;;;;;;;;;;2075125;28;20693;-65
2022/07/25 02:04:34;;;;;;;10.57;9.55;;;;;;;;;;2075255;28;20193;-66
2022/07/25 02:05:35;;;;;;;10.68;9.57;;;;;;;;;;2075459;28;20165;-65
2022/07/25 02:06:35;;;;;;;10.52;9.52;;;;;;;;;;2067569;28;20182;-66
2022/07/25 02:07:36;;;;;;;10.13;9.23;;;;;;;;;;2067611;28;20205;-64
2022/07/25 02:08:36;;;;;;;10.63;9.63;;;;;;;;;;2068427;28;20178;-64
2022/07/25 02:09:38;;;;;;;10.35;9.45;;;;;;;;;;2068416;28;20181;-65
2022/07/25 02:10:39;;;;;;;10.82;9.73;;;;;;;;;;2076606;28;20168;-64
2022/07/25 02:11:39;;;;;;;10.77;9.88;;;;;;;;;;2077791;28;20192;-67
2022/07/25 02:12:39;;;;;;;10.82;9.88;;;;;;;;;;2069248;28;20584;-65
2022/07/25 02:13:40;;;;;;;10.95;9.98;;;;;;;;;;2068919;28;20193;-65
2022/07/25 02:14:40;;;;;;;11.32;10.30;;;;;;;;;;2074336;28;20183;-65
2022/07/25 02:15:41;;;;;;;11.00;10.10;;;;;;;;;;2074598;28;20276;-64
2022/07/25 02:16:41;;;;;;;10.07;9.27;;;;;;;;;;2074862;28;20240;-64
2022/07/25 02:17:42;;;;;;;10.45;9.32;;;;;;;;;;2073393;28;20182;-64
2022/07/25 02:18:42;;;;;;;10.48;9.57;;;;;;;;;;2074374;28;20169;-65
2022/07/25 02:19:43;;;;;;;10.88;9.88;;;;;;;;;;2074710;28;20181;-61
2022/07/25 02:20:43;;;;;;;10.27;9.38;;;;;;;;;;2065589;28;20172;-65
2022/07/25 02:21:44;;;;;;;10.60;9.60;;;;;;;;;;2065829;28;20571;-66
2022/07/25 02:22:44;;;;;;;10.38;9.55;;;;;;;;;;2074224;28;20220;-66
2022/07/25 02:23:45;;;;;;;11.02;10.00;;;;;;;;;;2073680;28;20169;-65
2022/07/25 02:24:45;;;;;;;10.50;9.48;;;;;;;;;;2064672;28;20182;-65
2022/07/25 02:25:45;;;;;;;9.77;8.93;;;;;;;;;;2065315;28;20261;-65
2022/07/25 02:26:46;;;;;;;10.13;9.32;;;;;;;;;;2074506;28;20169;-67
2022/07/25 02:27:46;;;;;;;9.90;9.10;;;;;;;;;;2074068;28;20660;-67
2022/07/25 02:28:48;;;;;;;9.75;8.85;;;;;;;;;;2074283;28;20546;-65
2022/07/25 02:29:48;;;;;;;10.50;9.70;;;;;;;;;;2074236;28;20238;-66
2022/07/25 02:30:48;;;;;;;10.88;9.80;;;;;;;;;;2074028;28;20560;-64
2022/07/25 02:31:50;;;;;;;9.75;8.85;;;;;;;;;;2074638;28;20183;-65
2022/07/25 02:32:51;;;;;;;10.00;9.10;;;;;;;;;;2073604;28;20204;-65
2022/07/25 02:33:51;;;;;;;9.88;8.98;;;;;;;;;;2074248;28;20173;-62
2022/07/25 02:34:51;;;;;;;10.27;9.40;;;;;;;;;;2071655;28;20608;-65
2022/07/25 02:35:52;;;;;;;10.05;9.05;;;;;;;;;;2074290;28;20223;-63
2022/07/25 02:36:52;;;;;;;10.35;9.45;;;;;;;;;;2074361;28;20169;-64
2022/07/25 02:37:53;;;;;;;10.45;9.50;;;;;;;;;;2074374;28;20263;-65
2022/07/25 02:38:53;;;;;;;10.55;9.55;;;;;;;;;;2065453;28;20217;-65
2022/07/25 02:39:53;;;;;;;9.98;9.18;;;;;;;;;;2065675;28;20650;-64
2022/07/25 02:40:54;;;;;;;10.35;9.43;;;;;;;;;;2074045;28;20171;-64
2022/07/25 02:41:54;;;;;;;9.73;8.93;;;;;;;;;;2074575;28;20170;-64
2022/07/25 02:42:55;;;;;;;10.15;9.10;;;;;;;;;;2074181;28;20701;-63
2022/07/25 02:43:55;;;;;;;10.30;9.38;;;;;;;;;;2074070;28;20235;-65
2022/07/25 02:44:55;;;;;;;10.30;9.45;;;;;;;;;;2073528;28;20192;-64
2022/07/25 02:45:56;;;;;;;10.73;9.45;;;;;;;;;;2074360;28;20177;-65
2022/07/25 02:46:56;;;;;;;9.95;8.95;;;;;;;;;;2065725;28;20312;-65
2022/07/25 02:47:56;;;;;;;11.27;9.55;;;;;;;;;;2065949;28;20205;-65
2022/07/25 02:48:57;;;;;;;9.65;8.85;;;;;;;;;;2065516;28;20189;-65
2022/07/25 02:49:58;;;;;;;9.70;8.90;;;;;;;;;;2065675;28;20165;-63
2022/07/25 02:50:58;;;;;;;10.02;9.23;;;;;;;;;;2074268;28;20523;-60
2022/07/25 02:51:58;;;;;;;10.15;9.15;;;;;;;;;;2074333;28;20634;-63
2022/07/25 02:52:59;;;;;;;9.30;8.60;;;;;;;;;;2074156;28;20205;-63
2022/07/25 02:53:59;;;;;;;9.73;8.93;;;;;;;;;;2072977;28;20176;-64
2022/07/25 02:54:59;;;;;;;10.15;9.25;;;;;;;;;;2065374;28;20177;-64
2022/07/25 02:56:00;;;;;;;10.18;9.15;;;;;;;;;;2065366;28;20182;-66
2022/07/25 02:57:00;;;;;;;9.63;8.82;;;;;;;;;;2074317;28;20164;-66
2022/07/25 02:58:00;;;;;;;9.73;8.98;;;;;;;;;;2074026;28;20169;-64
2022/07/25 02:59:01;;;;;;;9.45;8.55;;;;;;;;;;2073736;28;20176;-64
2022/07/25 03:00:02;;;;;;;10.13;9.35;;;;;;;;;;2059301;28;20167;-65
2022/07/25 03:01:02;;;;;;;9.23;8.43;;;;;;;;;;2057711;28;20714;-67
2022/07/25 03:02:02;;;;;;;9.93;8.90;;;;;;;;;;2065595;28;20193;-64
2022/07/25 03:03:03;;;;;;;8.23;7.63;;;;;;;;;;2074240;28;20200;-64
2022/07/25 03:04:03;;;;;;;10.05;9.00;;;;;;;;;;2073083;28;20180;-64
2022/07/25 03:05:07;;;;;;;9.48;8.25;;;;;;;;;;2065786;28;20189;-66
2022/07/25 03:06:08;;;;;;;9.40;8.70;;;;;;;;;;2065664;28;20240;-64
2022/07/25 03:07:08;;;;;;;9.27;8.57;;;;;;;;;;2073967;28;20526;-65
2022/07/25 03:08:08;;;;;;;9.15;8.35;;;;;;;;;;2074233;28;20185;-65
2022/07/25 03:09:09;;;;;;;8.63;7.85;;;;;;;;;;2073968;28;20201;-65
2022/07/25 03:10:10;;;;;;;8.68;7.95;;;;;;;;;;2073916;28;20173;-64
2022/07/25 03:11:11;;;;;;;8.68;7.85;;;;;;;;;;2074283;28;20173;-66
2022/07/25 03:12:11;;;;;;;8.60;7.88;;;;;;;;;;2074090;28;20172;-61
2022/07/25 03:13:12;;;;;;;8.55;7.88;;;;;;;;;;2073815;28;20204;-63
2022/07/25 03:14:12;;;;;;;8.38;7.78;;;;;;;;;;2072577;28;20239;-63
2022/07/25 03:15:13;;;;;;;8.52;7.93;;;;;;;;;;2074089;28;20219;-65
2022/07/25 03:16:13;;;;;;;8.75;8.15;;;;;;;;;;2073856;28;20195;-63
2022/07/25 03:17:14;;;;;;;8.55;7.85;;;;;;;;;;2065457;28;20219;-64
2022/07/25 03:18:14;;;;;;;8.45;7.85;;;;;;;;;;2063796;28;20321;-64
2022/07/25 03:19:14;;;;;;;8.57;7.85;;;;;;;;;;2073981;28;20160;-64
2022/07/25 03:20:15;;;;;;;9.45;8.55;;;;;;;;;;2073818;28;20184;-64
2022/07/25 03:21:15;;;;;;;9.20;8.45;;;;;;;;;;2074020;28;20181;-65
2022/07/25 03:22:15;;;;;;;8.23;7.68;;;;;;;;;;2073262;28;20165;-66
2022/07/25 03:23:16;;;;;;;8.63;7.93;;;;;;;;;;2073970;28;20205;-64
2022/07/25 03:24:17;;;;;;;8.35;7.65;;;;;;;;;;2073147;28;20701;-65
2022/07/25 03:25:18;;;;;;;8.73;8.02;;;;;;;;;;2065593;28;20189;-65
2022/07/25 03:26:18;;;;;;;8.30;7.50;;;;;;;;;;2064965;28;20284;-62
2022/07/25 03:27:19;;;;;;;9.15;8.45;;;;;;;;;;2073989;28;20676;-62
2022/07/25 03:28:19;;;;;;;8.93;8.25;;;;;;;;;;2064992;28;20197;-65
2022/07/25 03:29:20;;;;;;;9.15;8.35;;;;;;;;;;2063991;28;20193;-63
2022/07/25 03:30:20;;;;;;;8.25;7.65;;;;;;;;;;2074304;28;20189;-67
2022/07/25 03:31:20;;;;;;;9.70;8.73;;;;;;;;;;2074045;28;20215;-64
2022/07/25 03:32:22;;;;;;;8.40;7.70;;;;;;;;;;2073931;28;20260;-65
2022/07/25 03:33:22;;;;;;;7.82;7.32;;;;;;;;;;2073813;28;20192;-67
2022/07/25 03:34:22;;;;;;;7.90;7.30;;;;;;;;;;2072764;28;20172;-65
2022/07/25 03:35:23;;;;;;;8.50;7.53;;;;;;;;;;2073855;28;20216;-64
2022/07/25 03:36:24;;;;;;;8.30;7.70;;;;;;;;;;2073866;28;20165;-64
2022/07/25 03:37:25;;;;;;;8.15;7.53;;;;;;;;;;2073778;28;20176;-65
2022/07/25 03:38:25;;;;;;;8.85;8.05;;;;;;;;;;2073809;28;20711;-65
2022/07/25 03:39:26;;;;;;;8.45;7.75;;;;;;;;;;2069221;28;20168;-64
2022/07/25 03:40:26;;;;;;;8.52;7.80;;;;;;;;;;2073899;28;20181;-66
2022/07/25 03:41:27;;;;;;;8.40;7.80;;;;;;;;;;2073783;28;20259;-65
2022/07/25 03:42:27;;;;;;;8.52;7.75;;;;;;;;;;2073975;28;20642;-65
2022/07/25 03:43:29;;;;;;;8.13;7.45;;;;;;;;;;2073613;28;20196;-61
2022/07/25 03:44:29;;;;;;;9.15;8.35;;;;;;;;;;2072947;28;20233;-62
2022/07/25 03:45:29;;;;;;;8.90;8.30;;;;;;;;;;2073702;28;20245;-66
2022/07/25 03:46:30;;;;;;;8.00;7.32;;;;;;;;;;2074164;28;20219;-65
2022/07/25 03:47:30;;;;;;;8.73;7.95;;;;;;;;;;2072992;28;20196;-64
2022/07/25 03:48:30;;;;;;;8.45;7.72;;;;;;;;;;2070025;28;20598;-63
2022/07/25 03:49:31;;;;;;;8.45;7.68;;;;;;;;;;2081064;28;20203;-64
2022/07/25 03:50:31;;;;;;;8.48;7.75;;;;;;;;;;2081020;28;20164;-65
2022/07/25 03:51:32;;;;;;;8.07;7.47;;;;;;;;;;2073234;28;20260;-64
2022/07/25 03:52:32;;;;;;;8.88;8.18;;;;;;;;;;2073162;28;20188;-60
2022/07/25 03:54:00;;;;;;;8.70;7.90;;;;;;;;;;2081985;28;20660;-65
2022/07/25 03:54:53;;;;;;;8.85;8.05;;;;;;;;;;2081497;28;20234;-64
2022/07/25 03:55:53;;;;;;;8.45;7.82;;;;;;;;;;2081751;28;20195;-63
2022/07/25 03:56:53;;;;;;;8.70;7.90;;;;;;;;;;2080573;28;20179;-64
2022/07/25 03:57:54;;;;;;;8.68;7.97;;;;;;;;;;2073603;28;20169;-64
2022/07/25 03:58:54;;;;;;;9.10;8.18;;;;;;;;;;2065290;28;20166;-63
2022/07/25 03:59:54;;;;;;;8.50;7.82;;;;;;;;;;2064711;28;20197;-63
2022/07/25 04:00:55;;;;;;;7.75;7.15;;;;;;;;;;2069953;28;20177;-65
2022/07/25 04:01:55;;;;;;;8.60;7.90;;;;;;;;;;2073539;28;20560;-64
2022/07/25 04:02:55;;;;;;;8.70;7.97;;;;;;;;;;2073616;28;20199;-65
2022/07/25 04:03:55;;;;;;;7.60;7.10;;;;;;;;;;2064415;28;20277;-62
2022/07/25 04:04:56;;;;;;;8.75;7.97;;;;;;;;;;2064742;28;20169;-65
2022/07/25 04:05:56;;;;;;;8.98;8.18;;;;;;;;;;2073681;28;20169;-65
2022/07/25 04:06:56;;;;;;;9.13;8.05;;;;;;;;;;2073933;28;20193;-64
2022/07/25 04:07:57;;;;;;;8.35;7.65;;;;;;;;;;2073770;28;20638;-65
2022/07/25 04:08:57;;;;;;;8.27;7.43;;;;;;;;;;2073872;28;20687;-64
2022/07/25 04:09:57;;;;;;;7.95;7.32;;;;;;;;;;2073848;28;20157;-63
2022/07/25 04:10:58;;;;;;;8.52;7.43;;;;;;;;;;2073666;28;20634;-64
2022/07/25 04:11:58;;;;;;;7.93;7.32;;;;;;;;;;2073929;28;20195;-64
2022/07/25 04:12:58;;;;;;;8.38;7.57;;;;;;;;;;2071997;28;20276;-64
2022/07/25 04:13:59;;;;;;;8.23;7.60;;;;;;;;;;2073965;28;20188;-59
2022/07/25 04:15:00;;;;;;;8.93;8.13;;;;;;;;;;2074570;28;20223;-61
2022/07/25 04:16:00;;;;;;;8.70;7.28;;;;;;;;;;2074519;28;20173;-62
2022/07/25 04:17:00;;;;;;;8.27;7.57;;;;;;;;;;2073331;28;20201;-64
2022/07/25 04:18:00;;;;;;;8.73;7.93;;;;;;;;;;2069811;28;20200;-64
2022/07/25 04:19:01;;;;;;;8.35;7.57;;;;;;;;;;2064180;28;20181;-66
2022/07/25 04:20:01;;;;;;;8.18;7.30;;;;;;;;;;2070427;28;20189;-62
2022/07/25 04:21:02;;;;;;;8.10;7.28;;;;;;;;;;2073531;28;20759;-64
2022/07/25 04:22:02;;;;;;;9.65;8.85;;;;;;;;;;2073222;28;20227;-65
2022/07/25 04:23:03;;;;;;;8.68;7.88;;;;;;;;;;2074030;28;20649;-62
2022/07/25 04:24:03;;;;;;;8.15;7.50;;;;;;;;;;2072888;28;20192;-64
2022/07/25 04:25:05;;;;;;;8.30;7.47;;;;;;;;;;2074180;28;20169;-63
2022/07/25 04:26:05;;;;;;;8.10;7.40;;;;;;;;;;2072721;28;20173;-64
2022/07/25 04:27:05;;;;;;;7.70;7.00;;;;;;;;;;2073085;28;20556;-64
2022/07/25 04:28:05;;;;;;;8.52;7.60;;;;;;;;;;2066483;28;20177;-62
2022/07/25 04:29:06;;;;;;;8.65;7.85;;;;;;;;;;2064969;28;20267;-64
2022/07/25 04:30:07;;;;;;;8.18;7.57;;;;;;;;;;2068452;28;20166;-64
2022/07/25 04:31:07;;;;;;;8.95;8.00;;;;;;;;;;2072778;28;20662;-63
2022/07/25 04:32:07;;;;;;;8.90;8.10;;;;;;;;;;2072845;28;20687;-64
2022/07/25 04:33:09;;;;;;;8.35;7.63;;;;;;;;;;2073272;28;20557;-64
2022/07/25 04:34:09;;;;;;;7.78;7.13;;;;;;;;;;2072688;28;20180;-64
2022/07/25 04:35:09;;;;;;;8.25;7.50;;;;;;;;;;2064660;28;20162;-65
2022/07/25 04:36:09;;;;;;;8.73;7.85;;;;;;;;;;2069319;28;20177;-64
2022/07/25 04:37:10;;;;;;;8.75;7.93;;;;;;;;;;2073325;28;20644;-63
2022/07/25 04:38:10;;;;;;;9.95;8.70;;;;;;;;;;2073573;28;20183;-64
2022/07/25 04:39:11;;;;;;;7.70;7.15;;;;;;;;;;2073516;28;20176;-65
2022/07/25 04:40:11;;;;;;;9.07;7.43;;;;;;;;;;2073434;28;20641;-64
2022/07/25 04:41:11;;;;;;;9.43;7.95;;;;;;;;;;2059696;28;20608;-62
2022/07/25 04:42:12;;;;;;;8.77;8.07;;;;;;;;;;2064608;28;20157;-63
2022/07/25 04:43:12;;;;;;;8.85;7.90;;;;;;;;;;2064518;28;20194;-64
2022/07/25 04:44:13;;;;;;;7.88;7.10;;;;;;;;;;2055734;28;20181;-61
2022/07/25 04:45:13;;;;;;;7.82;7.03;;;;;;;;;;2064732;28;20192;-64
2022/07/25 04:46:19;;;;;;;8.43;7.60;;;;;;;;;;2070676;28;20204;-63
2022/07/25 04:47:19;;;;;;;7.70;7.10;;;;;;;;;;2073475;28;20544;-64
2022/07/25 04:48:19;;;;;;;9.63;8.63;;;;;;;;;;2073342;28;20216;-64
2022/07/25 04:49:20;;;;;;;8.75;7.68;;;;;;;;;;2071687;28;20181;-65
2022/07/25 04:50:20;;;;;;;8.52;7.90;;;;;;;;;;2072855;28;20196;-64
2022/07/25 04:51:20;;;;;;;7.95;7.25;;;;;;;;;;2073406;28;20177;-65
2022/07/25 04:52:21;;;;;;;8.95;8.10;;;;;;;;;;2073230;28;20180;-65
2022/07/25 04:53:21;;;;;;;8.57;7.82;;;;;;;;;;2073088;28;20612;-65
2022/07/25 04:54:21;;;;;;;8.60;7.85;;;;;;;;;;2072221;28;20185;-67
2022/07/25 04:55:22;;;;;;;8.50;7.78;;;;;;;;;;2073133;28;20184;-65
2022/07/25 04:56:23;;;;;;;7.70;6.97;;;;;;;;;;2070928;28;20632;-63
2022/07/25 04:57:24;;;;;;;7.70;7.00;;;;;;;;;;2058327;28;20182;-64
2022/07/25 04:58:24;;;;;;;7.93;7.28;;;;;;;;;;2065255;28;20180;-63
2022/07/25 04:59:24;;;;;;;7.90;7.30;;;;;;;;;;2071128;28;20168;-64
2022/07/25 05:00:25;;;;;;;7.47;6.88;;;;;;;;;;2071719;28;20176;-63
2022/07/25 05:01:25;;;;;;;7.72;7.13;;;;;;;;;;2072587;28;20648;-63
2022/07/25 05:02:26;;;;;;;8.15;7.32;;;;;;;;;;2073076;28;20185;-64
2022/07/25 05:03:26;;;;;;;8.30;7.60;;;;;;;;;;2073334;28;20279;-64
2022/07/25 05:04:27;;;;;;;8.00;7.38;;;;;;;;;;2072505;28;20789;-64
2022/07/25 05:05:27;;;;;;;7.80;7.20;;;;;;;;;;2073564;28;20200;-66
2022/07/25 05:06:28;;;;;;;7.88;7.18;;;;;;;;;;2073414;28;20172;-65
2022/07/25 05:07:28;;;;;;;8.25;7.60;;;;;;;;;;2073588;28;20268;-65
2022/07/25 05:08:29;;;;;;;8.48;7.75;;;;;;;;;;2072968;28;20248;-64
2022/07/25 05:09:29;;;;;;;7.97;7.38;;;;;;;;;;2072817;28;20180;-64
2022/07/25 05:10:30;;;;;;;8.30;7.53;;;;;;;;;;2072831;28;20650;-64
2022/07/25 05:11:30;;;;;;;7.57;6.88;;;;;;;;;;2072717;28;20172;-64
2022/07/25 05:12:30;;;;;;;7.18;6.63;;;;;;;;;;2073269;28;20204;-64
2022/07/25 05:13:31;;;;;;;7.57;6.97;;;;;;;;;;2072688;28;20204;-63
2022/07/25 05:14:31;;;;;;;8.93;8.23;;;;;;;;;;2063583;28;20204;-66
2022/07/25 05:15:31;;;;;;;9.02;8.32;;;;;;;;;;2072606;28;20192;-65
2022/07/25 05:16:32;;;;;;;7.18;6.55;;;;;;;;;;2072283;28;20169;-64
2022/07/25 05:17:32;;;;;;;8.20;7.60;;;;;;;;;;2072722;28;20169;-64
2022/07/25 05:18:33;;;;;;;7.68;7.05;;;;;;;;;;2072932;28;20177;-63
2022/07/25 05:19:34;;;;;;;8.18;7.57;;;;;;;;;;2072996;28;20173;-64
2022/07/25 05:20:34;;;;;;;8.68;7.88;;;;;;;;;;2072748;28;20650;-64
2022/07/25 05:21:34;;;;;;;8.40;7.60;;;;;;;;;;2073059;28;20165;-64
2022/07/25 05:22:35;;;;;;;8.45;7.75;;;;;;;;;;2072498;28;20214;-64
2022/07/25 05:23:35;;;;;;;8.07;7.47;;;;;;;;;;2072797;28;20180;-66
2022/07/25 05:24:36;;;;;;;8.75;7.60;;;;;;;;;;2063787;28;20173;-63
2022/07/25 05:25:36;;;;;;;7.30;6.70;;;;;;;;;;2064657;28;20157;-64
2022/07/25 05:26:37;;;;;;;8.35;7.55;;;;;;;;;;2073272;28;20161;-64
2022/07/25 05:27:37;;;;;;;7.93;7.25;;;;;;;;;;2072039;28;20219;-64
2022/07/25 05:28:38;;;;;;;7.80;7.18;;;;;;;;;;2073380;28;20256;-63
2022/07/25 05:29:38;;;;;;;7.53;7.00;;;;;;;;;;2064338;28;20212;-64
2022/07/25 05:30:39;;;;;;;8.45;7.70;;;;;;;;;;2064734;28;20165;-64
2022/07/25 05:31:39;;;;;;;7.50;6.88;;;;;;;;;;2073261;28;20181;-63
2022/07/25 05:32:40;;;;;;;7.50;6.95;;;;;;;;;;2073415;28;20559;-64
2022/07/25 05:33:41;;;;;;;7.70;7.10;;;;;;;;;;2073315;28;20231;-64
2022/07/25 05:34:41;;;;;;;7.95;7.15;;;;;;;;;;2072476;28;20247;-63
2022/07/25 05:35:42;;;;;;;9.88;9.07;;;;;;;;;;2073221;28;20176;-64
2022/07/25 05:36:42;;;;;;;8.18;7.53;;;;;;;;;;2073309;28;20208;-63
2022/07/25 05:37:42;;;;;;;8.25;7.25;;;;;;;;;;2074531;28;20296;-62
2022/07/25 05:38:43;;;;;;;8.85;7.15;;;;;;;;;;2074853;28;20181;-63
2022/07/25 05:39:43;;;;;;;7.85;7.10;;;;;;;;;;2074822;28;20172;-63
2022/07/25 05:40:44;;;;;;;8.52;7.80;;;;;;;;;;2074934;28;20708;-66
2022/07/25 05:41:45;;;;;;;7.38;6.75;;;;;;;;;;2074794;28;20177;-64
2022/07/25 05:42:45;;;;;;;7.20;6.60;;;;;;;;;;2074757;28;20200;-63
2022/07/25 05:43:47;;;;;;;7.68;7.07;;;;;;;;;;2066009;28;20658;-65
2022/07/25 05:44:47;;;;;;;7.85;7.10;;;;;;;;;;2065648;28;20170;-64
2022/07/25 05:45:48;;;;;;;8.05;7.35;;;;;;;;;;2074759;28;20299;-65
2022/07/25 05:46:48;;;;;;;8.02;7.43;;;;;;;;;;2074697;28;20173;-62
2022/07/25 05:47:48;;;;;;;7.53;6.93;;;;;;;;;;2074780;28;20535;-64
2022/07/25 05:48:49;;;;;;;7.43;6.63;;;;;;;;;;2074819;28;20181;-65
2022/07/25 05:49:49;;;;;;;8.50;7.70;;;;;;;;;;2074853;28;20165;-64
2022/07/25 05:50:49;;;;;;;7.57;7.00;;;;;;;;;;2075005;28;20188;-63
2022/07/25 05:51:50;;;;;;;7.15;6.55;;;;;;;;;;2074966;28;20193;-65
2022/07/25 05:52:50;;;;;;;8.30;7.60;;;;;;;;;;2074867;28;20553;-65
2022/07/25 05:53:51;;;;;;;8.00;7.28;;;;;;;;;;2074260;28;20169;-64
2022/07/25 05:54:51;;;;;;;7.95;7.35;;;;;;;;;;2065620;28;20220;-63
2022/07/25 05:55:51;;;;;;;8.45;7.70;;;;;;;;;;2066428;28;20189;-64
2022/07/25 05:56:52;;;;;;;8.30;7.70;;;;;;;;;;2075292;28;20168;-63
2022/07/25 05:57:52;;;;;;;8.82;8.00;;;;;;;;;;2074800;28;20637;-65
2022/07/25 05:58:52;;;;;;;7.25;6.63;;;;;;;;;;2074931;28;20250;-65
2022/07/25 05:59:53;;;;;;;8.27;7.57;;;;;;;;;;2066022;28;20654;-63
2022/07/25 06:00:53;;;;;;;7.97;7.25;;;;;;;;;;2066074;28;20209;-63
2022/07/25 06:01:54;;;;;;;7.72;7.03;;;;;;;;;;2074506;28;20235;-63